Friday, October 19, 2018, 1:32 AM EDT
Back to Local

KMTP, Montauk Airport

Location: Montauk, NY, United States Lat: 41.067
Local Time: 1:32 AM EDT ( 5:32 GMT) Lon: -71.917
Time Zone: US/Eastern Elev: 6 ft

Show me the last for .
Show Coded

Time T Td Feel RH Dir Speed Gust Alt SLP Vis Weather Sky Remarks
2018-10-19 00:54 45 28 41 51 330° 7 - 30.32 30.32 0 24-hr Min Temp (1am): 42.1°F
24-hr Max Temp (1am): 48.9°F
2018-10-18 23:54 45 26 39 47 340° 12 - 30.33 30.33 0 None
2018-10-18 22:54 47 25 40 41 310° 9 20 30.33 30.33 0 None
2018-10-18 21:54 48 26 41 42 300° 13 22 30.33 30.32 0 None
2018-10-18 20:54 48 25 41 40 300° 12 18 30.32 30.32 0 None
2018-10-18 19:54 47 23 43 38 310° 8 - 30.31 30.31 0 6-hr Min Temp (8pm): 46.9°F
6-hr Max Temp (8pm): 48.9°F
2018-10-18 18:54 47 22 42 36 320° 10 - 30.31 30.31 0 None
2018-10-18 17:54 47 20 40 33 320° 13 20 30.29 30.29 0 None
2018-10-18 16:54 48 17 40 28 290° 10 23 30.27 30.27 0 None
2018-10-18 15:54 49 18 41 28 300° 12 24 30.28 30.27 0 None
2018-10-18 14:54 48 17 41 28 300° 12 20 30.27 30.27 0 None
2018-10-18 13:54 47 15 39 27 310° 14 25 30.28 30.27 0 6-hr Min Temp (2pm): 42.1°F
6-hr Max Temp (2pm): 48.0°F
2018-10-18 12:54 47 18 39 31 300° 10 22 30.28 30.28 0 None
2018-10-18 11:54 46 17 37 30 310° 13 25 30.29 30.28 0 None
2018-10-18 10:54 44 18 34 34 320° 15 28 30.29 30.29 0 Peak wind: 32 mph (28 kts) from 330° at 10 min
2018-10-18 09:54 43 18 33 36 320° 17 29 30.28 30.28 0 Peak wind: 32 mph (28 kts) from 320° at 37 min
2018-10-18 08:54 42 18 31 37 310° 15 33 30.27 30.27 0 Peak wind: 33 mph (29 kts) from 320° at 46 min
2018-10-18 07:54 42 19 31 39 320° 21 30 30.25 30.25 0 Peak wind: 37 mph (33 kts) from 320° at 02 min
6-hr Min Temp (8am): 42.1°F
6-hr Max Temp (8am): 48.0°F
2018-10-18 06:54 43 20 31 39 310° 22 38 30.22 30.21 0 Peak wind: 37 mph (33 kts) from 310° at 32 min
2018-10-18 05:54 44 25 34 46 310° 16 32 30.18 30.18 0 Peak wind: 36 mph (32 kts) from 310° at 59 min
2018-10-18 04:54 45 27 35 48 300° 18 29 30.16 30.16 0 Peak wind: 34 mph (30 kts) from 300° at 21 min
2018-10-18 03:54 46 27 37 47 310° 13 29 30.13 30.13 0 Peak wind: 32 mph (28 kts) from 300° at 00 min
2018-10-18 02:54 47 26 38 43 320° 13 29 30.10 30.10 0 None
2018-10-18 01:54 48 26 39 42 300° 15 31 30.09 30.09 0 Peak wind: 32 mph (28 kts) from 280° at 09 min
6-hr Min Temp (2am): 48.0°F
6-hr Max Temp (2am): 55.0°F

Support USWX by starting your Amazon purchase here.